Impacts TAF Board
For situational awareness. Not to be used for flight planning purposes.
IDs:

KTCL - Tuscaloosa Rgnl, AL, US

Issued at 2116 UTC 15 Oct 2018
Updated at 2224 UTC 15 Oct 2018
Potential Impact None Slight Moderate High
Time2153Z 15/23Z 16/00Z 16/01Z 16/02Z 16/03Z 16/04Z 16/05Z 16/06Z 16/07Z 16/08Z 16/09Z 16/10Z 16/11Z>>
Type OBS PRVL PRVL PRVL PRVL PRVL PRVL PRVL PRVL PRVL PRVL PRVL PRVL PRVL
VIS 10 >6 >6 >6 >6 >6 >6 >6 >6 >6 >6 >6 >6 >6
CIG -- -- -- -- -- -- -- -- 12 12 8 8 8 8
Cover CLR SCT SCT SCT SCT SCT SCT SCT BKN BKN BKN BKN BKN BKN
FltCat VFR VFR VFR VFR VFR VFR VFR VFR MVFR MVFR IFR IFR IFR IFR
WX -- -- -- -- -- -- -- -- -- -- VCSH VCSH VCSH VCSH
WDir 20 VRB VRB VRB VRB VRB VRB VRB 350 350 340 340 340 340
WSpd 5 3 3 3 3 3 3 3 5 5 7 7 7 7
WGst -- -- -- -- -- -- -- -- -- -- -- -- -- --
Raw TAF
KTCL 152116Z 1521/1618 VRB03KT P6SM SCT070
  FM160600 35005KT P6SM BKN012
  FM160800 34007KT P6SM VCSH BKN008
  FM161200 36007KT P6SM VCSH OVC015


Raw METAR
KTCL 152153Z 02005KT 10SM CLR 31/19 A3006 RMK AO2 SLP175 T03110189
KTCL 152053Z 00000KT 10SM SCT080 31/19 A3006 RMK AO2 SLP177 T03110189 56009
KTCL 151953Z 29005KT 10SM SCT040 BKN075 29/19 A3006 RMK AO2 SLP178 T02940194

METAR Board
Radar Display
Forecast Discussion
For situational awareness. Not to be used for flight planning purposes.